createdAt,value
2019-05-12T00:01:02.305Z,7.92
2019-05-12T00:03:33.572Z,8.10
2019-05-12T00:06:04.528Z,7.95
2019-05-12T00:08:34.364Z,7.92
2019-05-12T00:11:04.962Z,7.41
2019-05-12T00:13:34.690Z,7.72
2019-05-12T00:16:04.445Z,7.85
2019-05-12T00:18:37.742Z,7.72
2019-05-12T00:21:08.912Z,7.69
2019-05-12T00:23:58.191Z,7.62
2019-05-12T00:26:28.451Z,7.64
2019-05-12T00:28:58.832Z,7.52
2019-05-12T00:31:29.006Z,7.48
2019-05-12T00:33:59.547Z,7.48
2019-05-12T00:36:29.434Z,7.62
2019-05-12T00:38:59.203Z,7.69
2019-05-12T00:41:28.820Z,7.57
2019-05-12T00:43:58.760Z,7.62
2019-05-12T00:46:28.518Z,7.54
2019-05-12T00:49:01.107Z,7.54
2019-05-12T00:51:30.744Z,7.79
2019-05-12T00:54:00.569Z,7.73
2019-05-12T00:56:32.518Z,7.69
2019-05-12T00:59:02.944Z,7.71
2019-05-12T01:01:32.685Z,7.77
2019-05-12T01:04:02.443Z,7.79
2019-05-12T01:06:32.122Z,7.86
2019-05-12T01:09:02.946Z,7.85
2019-05-12T01:11:37.753Z,7.83
2019-05-12T01:14:08.600Z,8.04
2019-05-12T01:16:39.562Z,7.94
2019-05-12T01:19:10.704Z,7.78
2019-05-12T01:21:41.325Z,7.74
2019-05-12T01:24:13.223Z,7.63
2019-05-12T01:26:43.124Z,7.68
2019-05-12T01:29:17.664Z,7.70
2019-05-12T01:31:55.003Z,7.66
2019-05-12T01:34:27.607Z,7.74
2019-05-12T01:36:58.620Z,7.78
2019-05-12T01:39:29.284Z,7.76
2019-05-12T01:41:59.227Z,7.81
2019-05-12T01:44:28.807Z,7.83
2019-05-12T01:46:58.569Z,7.80
2019-05-12T01:49:29.026Z,7.80
2019-05-12T01:52:01.594Z,7.72
2019-05-12T01:54:31.983Z,7.71
2019-05-12T01:57:01.703Z,7.72
2019-05-12T01:59:31.483Z,7.69
2019-05-12T02:02:01.644Z,7.63
2019-05-12T02:04:33.201Z,7.67
2019-05-12T02:07:04.502Z,7.62
2019-05-12T02:09:38.622Z,7.62
2019-05-12T02:12:08.222Z,7.66
2019-05-12T02:14:38.331Z,7.84
2019-05-12T02:17:08.791Z,7.86
2019-05-12T02:19:38.664Z,7.92
2019-05-12T02:22:08.545Z,7.89
2019-05-12T02:24:39.318Z,7.69
2019-05-12T02:27:09.069Z,7.70
2019-05-12T02:29:39.196Z,7.57
2019-05-12T02:32:08.967Z,7.57
2019-05-12T02:34:38.511Z,7.47
2019-05-12T02:37:08.540Z,7.47
2019-05-12T02:39:38.309Z,7.37
2019-05-12T02:42:08.044Z,7.26
2019-05-12T02:44:37.833Z,7.14
2019-05-12T02:47:07.564Z,7.16
2019-05-12T02:49:38.488Z,7.18
2019-05-12T02:52:08.312Z,7.23
2019-05-12T02:54:54.495Z,7.27
2019-05-12T02:57:14.350Z,7.22
2019-05-12T02:59:45.228Z,7.21
2019-05-12T03:02:16.358Z,7.11
2019-05-12T03:04:46.386Z,7.09
2019-05-12T03:07:17.674Z,7.10
2019-05-12T03:09:51.018Z,7.11
2019-05-12T03:12:20.750Z,7.18
2019-05-12T03:14:50.539Z,7.21
2019-05-12T03:17:20.116Z,7.27
2019-05-12T03:19:50.006Z,7.35
2019-05-12T03:22:19.867Z,7.33
2019-05-12T03:25:06.454Z,7.31
2019-05-12T03:27:25.300Z,7.33
2019-05-12T03:29:55.286Z,7.44
2019-05-12T03:32:28.217Z,7.42
2019-05-12T03:34:58.520Z,7.26
2019-05-12T03:37:31.437Z,7.49
2019-05-12T03:39:59.589Z,7.47
2019-05-12T03:42:29.291Z,7.40
2019-05-12T03:45:00.664Z,7.47
2019-05-12T03:47:30.468Z,7.44
2019-05-12T03:50:00.836Z,7.52
2019-05-12T03:52:30.622Z,7.40
2019-05-12T03:55:00.283Z,7.38
2019-05-12T03:57:30.035Z,7.47
2019-05-12T04:00:04.944Z,7.46
2019-05-12T04:02:34.137Z,7.44
2019-05-12T04:05:05.670Z,7.39
2019-05-12T04:07:35.943Z,7.32
2019-05-12T04:10:06.894Z,7.41
2019-05-12T04:12:36.609Z,7.35
2019-05-12T04:15:07.385Z,7.43
2019-05-12T04:17:37.224Z,7.45
2019-05-12T04:20:07.525Z,7.45
2019-05-12T04:22:37.674Z,7.38
2019-05-12T04:25:07.511Z,7.37
2019-05-12T04:27:37.206Z,7.31
2019-05-12T04:30:09.922Z,7.38
2019-05-12T04:32:40.747Z,7.24
2019-05-12T04:35:10.857Z,7.33
2019-05-12T04:37:40.502Z,7.41
2019-05-12T04:40:10.323Z,7.41
2019-05-12T04:42:40.202Z,7.34
2019-05-12T04:45:09.964Z,7.39
2019-05-12T04:47:39.964Z,7.53
2019-05-12T04:50:09.705Z,7.51
2019-05-12T04:52:39.481Z,7.55
2019-05-12T04:55:09.308Z,7.61
2019-05-12T04:57:39.049Z,7.74
2019-05-12T05:00:09.629Z,7.70
2019-05-12T05:02:39.467Z,7.61
2019-05-12T05:05:09.403Z,7.63
2019-05-12T05:07:39.184Z,7.87
2019-05-12T05:10:08.924Z,8.08
2019-05-12T05:12:38.723Z,8.25
2019-05-12T05:15:08.604Z,8.34
2019-05-12T05:17:38.344Z,8.38
2019-05-12T05:20:08.964Z,8.52
2019-05-12T05:22:38.725Z,8.54
2019-05-12T05:25:09.144Z,8.59
2019-05-12T05:27:40.443Z,8.64
2019-05-12T05:30:10.702Z,8.76
2019-05-12T05:32:40.470Z,8.76
2019-05-12T05:35:10.303Z,8.76
2019-05-12T05:37:43.573Z,8.78
2019-05-12T05:40:14.084Z,8.77
2019-05-12T05:42:44.177Z,8.77
2019-05-12T05:45:19.566Z,8.62
2019-05-12T05:47:48.847Z,8.29
2019-05-12T05:50:18.368Z,8.32
2019-05-12T05:52:48.644Z,8.35
2019-05-12T05:55:20.321Z,8.32
2019-05-12T05:57:50.416Z,8.30
2019-05-12T06:00:25.601Z,8.38
2019-05-12T06:02:54.654Z,8.46
2019-05-12T06:05:30.685Z,8.42
2019-05-12T06:07:57.705Z,8.47
2019-05-12T06:10:35.323Z,8.56
2019-05-12T06:13:00.504Z,8.44
2019-05-12T06:15:35.715Z,8.25
2019-05-12T06:18:03.645Z,8.31
2019-05-12T06:20:37.729Z,8.26
2019-05-12T06:23:05.468Z,8.15
2019-05-12T06:25:46.136Z,8.14
2019-05-12T06:28:08.905Z,8.26
2019-05-12T06:30:44.251Z,8.32
2019-05-12T06:33:11.122Z,8.32
2019-05-12T06:35:45.365Z,8.26
2019-05-12T06:38:15.046Z,8.22
2019-05-12T06:40:45.570Z,8.23
2019-05-12T06:43:15.804Z,8.20
2019-05-12T06:45:50.407Z,8.23
2019-05-12T06:48:28.423Z,8.25
2019-05-12T06:50:54.987Z,8.14
2019-05-12T06:53:29.043Z,8.23
2019-05-12T06:55:56.682Z,8.28
2019-05-12T06:58:31.330Z,8.30
2019-05-12T07:01:04.404Z,8.32
2019-05-12T07:03:31.481Z,8.23
2019-05-12T07:06:09.063Z,8.32
2019-05-12T07:08:38.517Z,8.29
2019-05-12T07:11:08.475Z,8.32
2019-05-12T07:13:38.442Z,8.31
2019-05-12T07:16:21.804Z,8.25
2019-05-12T07:18:47.684Z,8.23
2019-05-12T07:21:20.143Z,8.29
2019-05-12T07:23:49.345Z,8.30
2019-05-12T07:26:23.776Z,8.25
2019-05-12T07:28:54.051Z,8.31
2019-05-12T07:31:24.144Z,8.35
2019-05-12T07:33:54.324Z,8.30
2019-05-12T07:36:26.001Z,8.38
2019-05-12T07:39:04.053Z,8.34
2019-05-12T07:41:28.560Z,8.39
2019-05-12T07:44:00.915Z,8.48
2019-05-12T07:46:30.684Z,8.33
2019-05-12T07:49:00.412Z,8.43
2019-05-12T07:51:35.363Z,8.34
2019-05-12T07:54:03.897Z,8.45
2019-05-12T07:56:35.776Z,8.41
2019-05-12T07:59:06.604Z,8.44
2019-05-12T08:01:46.634Z,8.56
2019-05-12T08:04:13.310Z,8.70
2019-05-12T08:06:46.761Z,8.75
2019-05-12T08:09:14.905Z,8.56
2019-05-12T08:11:44.579Z,8.86
2019-05-12T08:14:25.051Z,8.82
2019-05-12T08:16:46.824Z,8.85
2019-05-12T08:19:23.898Z,9.02
2019-05-12T08:21:50.570Z,9.14
2019-05-12T08:24:23.514Z,8.97
2019-05-12T08:26:59.724Z,9.07
2019-05-12T08:29:27.184Z,8.99
2019-05-12T08:31:56.983Z,9.03
2019-05-12T08:34:26.805Z,8.96
2019-05-12T08:36:58.134Z,8.95
2019-05-12T08:39:28.006Z,9.02
2019-05-12T08:41:57.823Z,9.06
2019-05-12T08:44:33.461Z,8.95
2019-05-12T08:47:00.496Z,9.02
2019-05-12T08:49:35.928Z,9.10
2019-05-12T08:52:03.858Z,9.03
2019-05-12T08:54:33.805Z,9.11
2019-05-12T08:57:03.966Z,8.86
2019-05-12T08:59:34.472Z,8.94
2019-05-12T09:02:07.400Z,9.01
2019-05-12T09:04:37.077Z,9.03
2019-05-12T09:07:07.632Z,8.95
2019-05-12T09:09:40.026Z,9.04
2019-05-12T09:12:09.804Z,9.00
2019-05-12T09:14:41.220Z,9.02
2019-05-12T09:17:13.852Z,8.99
2019-05-12T09:19:43.790Z,9.03
2019-05-12T09:22:18.530Z,8.97
2019-05-12T09:24:47.779Z,8.98
2019-05-12T09:27:17.651Z,8.98
2019-05-12T09:29:49.589Z,9.00
2019-05-12T09:32:19.443Z,9.02
2019-05-12T09:34:53.216Z,9.10
2019-05-12T09:37:24.065Z,8.90
2019-05-12T09:39:53.929Z,8.99
2019-05-12T09:42:28.566Z,9.02
2019-05-12T09:45:00.032Z,9.06
2019-05-12T09:47:28.741Z,9.00
2019-05-12T09:49:58.970Z,9.02
2019-05-12T09:52:29.836Z,9.00
2019-05-12T09:54:59.649Z,8.82
2019-05-12T09:57:32.462Z,8.70
2019-05-12T10:00:00.779Z,8.71
2019-05-12T10:02:30.609Z,8.71
2019-05-12T10:05:01.152Z,8.74
2019-05-12T10:07:34.089Z,8.73
2019-05-12T10:10:05.289Z,8.48
2019-05-12T10:12:38.734Z,8.49
2019-05-12T10:15:10.529Z,8.52
2019-05-12T10:17:43.269Z,8.32
2019-05-12T10:20:13.671Z,8.23
2019-05-12T10:22:43.935Z,8.18
2019-05-12T10:25:15.711Z,8.19
2019-05-12T10:27:45.471Z,7.90
2019-05-12T10:30:17.387Z,7.81
2019-05-12T10:32:47.233Z,7.68
2019-05-12T10:35:21.388Z,7.58
2019-05-12T10:37:49.858Z,7.46
2019-05-12T10:40:23.230Z,7.55
2019-05-12T10:42:54.798Z,7.62
2019-05-12T10:45:32.551Z,7.59
2019-05-12T10:48:04.777Z,7.73
2019-05-12T10:50:38.273Z,7.83
2019-05-12T10:53:09.849Z,7.78
2019-05-12T10:55:39.905Z,7.91
2019-05-12T10:58:11.245Z,8.00
2019-05-12T11:00:44.211Z,7.98
2019-05-12T11:03:15.516Z,8.03
2019-05-12T11:05:45.646Z,8.11
2019-05-12T11:08:16.099Z,8.23
2019-05-12T11:10:59.355Z,8.28
2019-05-12T11:13:26.547Z,8.37
2019-05-12T11:15:57.629Z,8.23
2019-05-12T11:18:30.403Z,8.13
2019-05-12T11:20:58.966Z,8.27
2019-05-12T11:23:29.946Z,8.23
2019-05-12T11:26:11.486Z,8.34
2019-05-12T11:28:41.324Z,8.30
2019-05-12T11:31:11.110Z,8.23
2019-05-12T11:33:40.864Z,8.05
2019-05-12T11:36:13.591Z,8.17
2019-05-12T11:38:44.445Z,8.10
2019-05-12T11:41:19.933Z,8.09
2019-05-12T11:43:46.808Z,8.06
2019-05-12T11:46:16.578Z,8.01
2019-05-12T11:48:50.279Z,7.93
2019-05-12T11:51:28.945Z,8.06
2019-05-12T11:53:53.023Z,8.20
2019-05-12T11:56:24.347Z,8.40
2019-05-12T11:58:54.441Z,8.38
2019-05-12T12:01:25.862Z,8.41
2019-05-12T12:03:56.807Z,8.60
2019-05-12T12:06:26.646Z,8.77
2019-05-12T12:08:56.725Z,8.69
2019-05-12T12:11:28.870Z,8.88
2019-05-12T12:14:11.113Z,9.03
2019-05-12T12:16:50.068Z,9.14
2019-05-12T12:19:15.151Z,9.24
2019-05-12T12:21:49.891Z,9.52
2019-05-12T12:24:21.229Z,9.64
2019-05-12T12:26:49.016Z,9.68
2019-05-12T12:29:19.824Z,9.49
2019-05-12T12:31:54.065Z,9.65
2019-05-12T12:34:29.943Z,9.71
2019-05-12T12:36:55.818Z,9.99
2019-05-12T12:39:25.627Z,9.94
2019-05-12T12:42:00.546Z,9.76
2019-05-12T12:44:27.464Z,9.64
2019-05-12T12:47:00.481Z,9.76
2019-05-12T12:49:33.927Z,9.72
2019-05-12T12:52:06.385Z,9.70
2019-05-12T12:54:36.247Z,9.73
2019-05-12T12:57:09.773Z,9.71
2019-05-12T12:59:45.451Z,9.87
2019-05-12T13:02:15.131Z,9.99
2019-05-12T13:04:50.053Z,9.97
2019-05-12T13:07:16.986Z,10.02
2019-05-12T13:09:55.018Z,10.14
2019-05-12T13:12:21.507Z,10.01
2019-05-12T13:14:53.210Z,10.03
2019-05-12T13:17:29.013Z,10.02
2019-05-12T13:19:58.714Z,10.11
2019-05-12T13:22:29.782Z,10.16
2019-05-12T13:25:04.520Z,10.24
2019-05-12T13:27:36.137Z,10.19
2019-05-12T13:30:05.616Z,10.08
2019-05-12T13:32:37.926Z,10.09
2019-05-12T13:35:09.897Z,9.97
2019-05-12T13:37:39.762Z,9.85
2019-05-12T13:40:12.884Z,9.78
2019-05-12T13:42:44.246Z,9.88
2019-05-12T13:45:16.386Z,10.15
2019-05-12T13:47:46.492Z,10.23
2019-05-12T13:50:21.467Z,10.26
2019-05-12T13:52:49.298Z,10.18
2019-05-12T13:55:19.184Z,10.27
2019-05-12T13:57:56.262Z,10.26
2019-05-12T14:00:23.585Z,10.28
2019-05-12T14:02:55.543Z,10.19
2019-05-12T14:05:24.986Z,10.11
2019-05-12T14:07:57.277Z,10.14
2019-05-12T14:10:29.406Z,10.37
2019-05-12T14:12:58.456Z,10.56
2019-05-12T14:15:29.825Z,10.45
2019-05-12T14:17:59.705Z,10.24
2019-05-12T14:20:29.467Z,10.19
2019-05-12T14:22:59.395Z,10.03
2019-05-12T14:25:33.035Z,9.77
2019-05-12T14:28:09.274Z,9.64
2019-05-12T14:30:41.162Z,9.62
2019-05-12T14:33:10.326Z,9.56
2019-05-12T14:35:45.391Z,9.50
2019-05-12T14:38:14.236Z,9.42
2019-05-12T14:40:44.300Z,9.34
2019-05-12T14:43:19.155Z,9.23
2019-05-12T14:45:45.870Z,9.24
2019-05-12T14:48:16.906Z,9.11
2019-05-12T14:50:48.967Z,9.15
2019-05-12T14:53:20.544Z,9.06
2019-05-12T14:55:50.710Z,9.05
2019-05-12T14:58:23.758Z,9.03
2019-05-12T15:00:58.148Z,8.88
2019-05-12T15:03:29.363Z,8.84
2019-05-12T15:05:59.304Z,8.83
2019-05-12T15:08:36.140Z,8.77
2019-05-12T15:11:03.849Z,8.74
2019-05-12T15:13:34.383Z,8.69
2019-05-12T15:16:04.454Z,8.71
2019-05-12T15:18:39.632Z,8.64
2019-05-12T15:21:06.366Z,8.50
2019-05-12T15:23:37.446Z,8.39
2019-05-12T15:26:21.497Z,8.34
2019-05-12T15:28:57.586Z,8.30
2019-05-12T15:31:27.452Z,8.23
2019-05-12T15:33:59.651Z,8.25
2019-05-12T15:36:43.607Z,8.20
2019-05-12T15:39:16.335Z,8.28
2019-05-12T15:41:51.093Z,8.07
2019-05-12T15:44:23.194Z,7.95
2019-05-12T15:46:49.927Z,7.88
2019-05-12T15:49:19.987Z,7.87
2019-05-12T15:51:54.372Z,7.88
2019-05-12T15:54:22.448Z,7.87
2019-05-12T15:56:55.638Z,7.81
2019-05-12T15:59:27.037Z,7.79
2019-05-12T16:02:09.587Z,7.75
2019-05-12T16:04:34.641Z,7.73
2019-05-12T16:07:03.982Z,7.77
2019-05-12T16:09:40.469Z,7.72
2019-05-12T16:12:19.954Z,7.78
2019-05-12T16:14:44.083Z,7.71
2019-05-12T16:17:16.795Z,7.58
2019-05-12T16:19:46.200Z,7.59
2019-05-12T16:22:17.208Z,7.57
2019-05-12T16:24:48.860Z,7.55
2019-05-12T16:27:27.278Z,7.50
2019-05-12T16:29:55.618Z,7.46
2019-05-12T16:32:32.468Z,7.43
2019-05-12T16:34:59.641Z,7.38
2019-05-12T16:37:31.629Z,7.50
2019-05-12T16:40:06.674Z,7.51
2019-05-12T16:42:40.796Z,7.67
2019-05-12T16:45:10.495Z,7.56
2019-05-12T16:47:40.349Z,7.53
2019-05-12T16:50:23.696Z,7.44
2019-05-12T16:52:48.458Z,7.53
2019-05-12T16:55:19.908Z,7.46
2019-05-12T16:57:52.688Z,7.47
2019-05-12T17:00:24.444Z,7.44
2019-05-12T17:02:58.116Z,7.47
2019-05-12T17:05:28.173Z,7.51
2019-05-12T17:08:04.209Z,7.50
2019-05-12T17:10:36.035Z,7.35
2019-05-12T17:13:13.749Z,7.37
2019-05-12T17:15:43.167Z,7.40
2019-05-12T17:18:13.736Z,7.37
2019-05-12T17:20:47.043Z,7.30
2019-05-12T17:23:19.468Z,7.27
2019-05-12T17:25:50.013Z,7.23
2019-05-12T17:28:24.686Z,7.14
2019-05-12T17:30:55.652Z,7.07
2019-05-12T17:33:27.953Z,7.01
2019-05-12T17:36:03.135Z,6.96
2019-05-12T17:38:34.108Z,6.78
2019-05-12T17:41:06.907Z,6.82
2019-05-12T17:43:59.557Z,6.89
2019-05-12T17:46:18.600Z,6.87
2019-05-12T17:48:49.690Z,6.93
2019-05-12T17:51:20.512Z,7.05
2019-05-12T17:53:54.020Z,7.08
2019-05-12T17:56:25.186Z,7.00
2019-05-12T17:58:56.854Z,7.00
2019-05-12T18:01:31.207Z,6.94
2019-05-12T18:04:04.098Z,6.95
2019-05-12T18:06:35.557Z,6.90
2019-05-12T18:09:15.666Z,6.87
2019-05-12T18:11:54.226Z,6.86
2019-05-12T18:14:27.330Z,6.83
2019-05-12T18:17:02.812Z,6.80
2019-05-12T18:19:27.831Z,6.81
2019-05-12T18:22:03.088Z,6.79
2019-05-12T18:24:34.337Z,6.72
2019-05-12T18:27:07.708Z,6.73
2019-05-12T18:29:36.030Z,6.70
2019-05-12T18:32:08.539Z,6.69
2019-05-12T18:34:40.983Z,6.65
2019-05-12T18:37:13.415Z,6.59
2019-05-12T18:39:43.624Z,6.66
2019-05-12T18:45:11.958Z,6.67
2019-05-12T18:47:38.675Z,6.66
2019-05-12T18:50:10.362Z,6.63
2019-05-12T18:52:46.206Z,6.65
2019-05-12T18:55:17.589Z,6.60
2019-05-12T18:57:50.063Z,6.64
2019-05-12T19:00:23.346Z,6.69
2019-05-12T19:02:54.525Z,6.73
2019-05-12T19:08:16.591Z,6.75
2019-05-12T19:10:51.199Z,6.80
2019-05-12T19:13:23.829Z,6.18
2019-05-12T19:16:02.459Z,6.72
2019-05-12T19:21:20.084Z,6.73
2019-05-12T19:24:00.499Z,6.65
2019-05-12T19:26:32.854Z,6.64
2019-05-12T19:29:05.565Z,6.54
2019-05-12T19:31:45.259Z,6.38
2019-05-12T19:34:19.807Z,6.43
2019-05-12T19:36:49.516Z,6.48
2019-05-12T19:39:20.647Z,6.53
2019-05-12T19:41:50.569Z,6.47
2019-05-12T19:44:26.523Z,6.45
2019-05-12T19:46:59.307Z,6.38
2019-05-12T19:49:45.959Z,6.35
2019-05-12T19:52:03.587Z,6.33
2019-05-12T19:54:36.668Z,6.38
2019-05-12T19:57:06.489Z,6.35
2019-05-12T19:59:50.589Z,6.38
2019-05-12T20:02:16.375Z,6.42
2019-05-12T20:07:35.973Z,6.47
2019-05-12T20:10:13.886Z,6.42
2019-05-12T20:12:48.773Z,6.48
2019-05-12T20:15:15.919Z,6.53
2019-05-12T20:17:48.848Z,6.46
2019-05-12T20:20:19.705Z,6.44
2019-05-12T20:22:58.642Z,6.43
2019-05-12T20:25:28.539Z,6.50
2019-05-12T20:28:05.642Z,6.47
2019-05-12T20:30:30.640Z,6.48
2019-05-12T20:33:04.149Z,6.50
2019-05-12T20:35:33.887Z,6.52
2019-05-12T20:38:06.000Z,6.46
2019-05-12T20:40:37.664Z,6.56
2019-05-12T20:43:08.572Z,6.59
2019-05-12T20:45:40.669Z,6.50
2019-05-12T20:48:11.095Z,6.40
2019-05-12T20:50:43.557Z,6.34
2019-05-12T20:53:14.433Z,6.34
2019-05-12T20:55:45.052Z,6.25
2019-05-12T20:58:15.939Z,6.15
2019-05-12T21:00:50.259Z,6.10
2019-05-12T21:03:24.335Z,6.03
2019-05-12T21:05:58.100Z,5.95
2019-05-12T21:08:25.742Z,5.90
2019-05-12T21:10:58.089Z,5.74
2019-05-12T21:13:31.823Z,5.80
2019-05-12T21:16:15.778Z,5.78
2019-05-12T21:18:46.905Z,5.75
2019-05-12T21:21:05.530Z,5.77
2019-05-12T21:23:36.192Z,5.74
2019-05-12T21:26:06.749Z,5.69
2019-05-12T21:28:37.283Z,5.71
2019-05-12T21:31:08.020Z,5.70
2019-05-12T21:33:41.657Z,5.68
2019-05-12T21:36:09.227Z,5.75
2019-05-12T21:38:39.014Z,5.75
2019-05-12T21:41:10.083Z,5.73
2019-05-12T21:43:40.442Z,5.71
2019-05-12T21:46:12.626Z,5.70
2019-05-12T21:48:41.830Z,5.76
2019-05-12T21:51:16.471Z,5.68
2019-05-12T21:53:44.374Z,5.78
2019-05-12T21:56:14.169Z,5.70
2019-05-12T21:58:53.367Z,5.82
2019-05-12T22:01:15.977Z,5.78
2019-05-12T22:03:57.818Z,5.82
2019-05-12T22:06:21.900Z,5.84
2019-05-12T22:08:55.373Z,5.84
2019-05-12T22:11:23.927Z,5.89
2019-05-12T22:13:59.561Z,5.92
2019-05-12T22:16:29.657Z,5.96
2019-05-12T22:18:59.471Z,6.02
2019-05-12T22:21:28.689Z,6.00
2019-05-12T22:23:58.562Z,6.06
2019-05-12T22:26:30.701Z,6.10
2019-05-12T22:28:59.804Z,6.16
2019-05-12T22:31:29.525Z,6.14
2019-05-12T22:33:59.498Z,6.11
2019-05-12T22:36:30.216Z,6.12
2019-05-12T22:39:01.124Z,6.13
2019-05-12T22:41:36.975Z,6.18
2019-05-12T22:44:02.889Z,6.17
2019-05-12T22:46:35.748Z,6.22
2019-05-12T22:49:04.755Z,6.25
2019-05-12T22:51:34.502Z,6.26
2019-05-12T22:54:06.853Z,6.25
2019-05-12T22:56:36.869Z,6.30
2019-05-12T22:59:06.645Z,6.31
2019-05-12T23:01:41.730Z,6.36
2019-05-12T23:04:08.777Z,6.38
2019-05-12T23:06:42.172Z,6.38
2019-05-12T23:09:10.021Z,6.41
2019-05-12T23:11:39.910Z,6.42
2019-05-12T23:14:12.702Z,6.40
2019-05-12T23:16:44.308Z,6.46
2019-05-12T23:19:15.088Z,6.45
2019-05-12T23:21:49.358Z,6.45
2019-05-12T23:24:16.266Z,6.47
2019-05-12T23:26:47.918Z,6.51
2019-05-12T23:29:20.524Z,6.55
2019-05-12T23:31:48.839Z,6.52
2019-05-12T23:34:18.637Z,6.58
2019-05-12T23:36:50.462Z,6.58
2019-05-12T23:39:19.797Z,6.62
2019-05-12T23:41:49.584Z,6.60
2019-05-12T23:44:19.226Z,6.63
2019-05-12T23:46:48.941Z,6.67
2019-05-12T23:49:18.711Z,6.55
2019-05-12T23:51:48.487Z,6.66
2019-05-12T23:54:18.234Z,6.68
2019-05-12T23:56:48.019Z,6.68
2019-05-12T23:59:17.757Z,6.69
